Time;durP1;ratioP1;P1;durP2;ratioP2;P2;SDS_P1;SDS_P2;PMS_P1;PMS_P2;Temp;Humidity;BMP_temperature;BMP_pressure;BME280_temperature;BME280_humidity;BME280_pressure;Samples;Min_cycle;Max_cycle;Signal;HPM_P1;HPM_P2
2022/10/04 00:02:38;;;;;;;99.45;93.80;;;;;;;;;;10149122;28;20646;-71
2022/10/04 00:07:39;;;;;;;96.45;90.85;;;;;;;;;;10157116;28;20101;-70
2022/10/04 00:12:38;;;;;;;90.50;85.55;;;;;;;;;;10155483;28;20045;-70
2022/10/04 00:17:35;;;;;;;99.40;93.55;;;;;;;;;;10150040;28;20527;-71
2022/10/04 00:22:31;;;;;;;105.60;99.15;;;;;;;;;;10150903;28;20692;-70
2022/10/04 00:27:28;;;;;;;95.82;90.22;;;;;;;;;;10150055;28;20043;-70
2022/10/04 00:32:26;;;;;;;99.63;93.68;;;;;;;;;;10162813;28;20635;-70
2022/10/04 00:37:24;;;;;;;101.07;95.40;;;;;;;;;;10152073;28;20046;-71
2022/10/04 00:42:38;;;;;;;98.63;92.57;;;;;;;;;;10152166;28;20050;-70
2022/10/04 00:47:40;;;;;;;99.15;93.50;;;;;;;;;;10157921;28;20064;-70
2022/10/04 00:52:41;;;;;;;106.13;99.70;;;;;;;;;;10154680;28;20046;-71
2022/10/04 00:57:43;;;;;;;105.07;99.05;;;;;;;;;;10146585;28;20688;-71
2022/10/04 01:02:43;;;;;;;101.20;95.53;;;;;;;;;;10149948;28;20050;-71
2022/10/04 01:07:41;;;;;;;105.43;99.47;;;;;;;;;;10142414;28;20045;-71
2022/10/04 01:12:41;;;;;;;109.88;103.75;;;;;;;;;;10159440;28;20043;-72
2022/10/04 01:17:37;;;;;;;104.45;98.68;;;;;;;;;;10162109;28;20460;-72
2022/10/04 01:22:35;;;;;;;100.40;94.63;;;;;;;;;;10145335;28;20038;-70
2022/10/04 01:27:44;;;;;;;104.25;98.55;;;;;;;;;;10141267;28;20046;-70
2022/10/04 01:32:40;;;;;;;100.47;94.15;;;;;;;;;;10143799;28;20081;-70
2022/10/04 01:37:38;;;;;;;102.72;97.03;;;;;;;;;;10159667;28;20052;-70
2022/10/04 01:42:37;;;;;;;100.57;94.93;;;;;;;;;;10147234;28;20065;-71
2022/10/04 01:47:36;;;;;;;94.03;88.60;;;;;;;;;;10154589;28;20042;-71
2022/10/04 01:52:36;;;;;;;99.78;93.68;;;;;;;;;;10150450;28;20041;-71
2022/10/04 01:57:36;;;;;;;100.95;94.97;;;;;;;;;;10144455;28;20054;-72
2022/10/04 02:02:35;;;;;;;101.30;95.07;;;;;;;;;;10137253;28;20061;-72
2022/10/04 02:07:32;;;;;;;104.82;98.80;;;;;;;;;;10148216;28;20057;-72
2022/10/04 02:12:30;;;;;;;101.97;96.40;;;;;;;;;;10148179;28;20412;-70
2022/10/04 02:17:31;;;;;;;101.68;95.78;;;;;;;;;;10145108;28;20042;-69
2022/10/04 02:22:27;;;;;;;105.60;99.47;;;;;;;;;;10148894;28;20416;-71
2022/10/04 02:27:30;;;;;;;102.63;96.55;;;;;;;;;;10152335;28;20054;-71
2022/10/04 02:37:43;;;;;;;100.20;94.28;;;;;;;;;;10150013;28;20048;-69
2022/10/04 02:42:43;;;;;;;100.15;94.38;;;;;;;;;;10146171;28;20049;-70
2022/10/04 02:47:42;;;;;;;98.25;92.72;;;;;;;;;;10145661;28;20034;-71
2022/10/04 02:52:44;;;;;;;97.38;91.47;;;;;;;;;;10146928;28;20068;-70
2022/10/04 02:57:41;;;;;;;100.15;94.28;;;;;;;;;;10142671;28;20505;-70
2022/10/04 03:02:38;;;;;;;93.20;88.03;;;;;;;;;;10146172;28;20057;-70
2022/10/04 03:07:35;;;;;;;89.68;84.65;;;;;;;;;;10141311;28;20061;-69
2022/10/04 03:12:32;;;;;;;92.55;87.00;;;;;;;;;;10146102;28;20069;-71
2022/10/04 03:17:29;;;;;;;92.07;87.05;;;;;;;;;;10161260;28;20407;-71
2022/10/04 03:22:25;;;;;;;92.75;87.20;;;;;;;;;;10159005;28;20053;-71
2022/10/04 03:27:25;;;;;;;91.60;86.65;;;;;;;;;;10155183;28;20052;-71
2022/10/04 03:32:21;;;;;;;89.68;84.50;;;;;;;;;;10141327;28;20053;-71
2022/10/04 03:37:20;;;;;;;86.68;81.68;;;;;;;;;;10139569;28;20046;-71
2022/10/04 03:42:22;;;;;;;83.65;78.72;;;;;;;;;;10142517;28;20070;-71
2022/10/04 03:47:24;;;;;;;81.35;76.45;;;;;;;;;;10150697;28;20042;-68
2022/10/04 03:52:24;;;;;;;77.47;72.72;;;;;;;;;;10137296;28;20034;-69
2022/10/04 03:57:21;;;;;;;77.20;72.82;;;;;;;;;;10130834;28;20046;-69
2022/10/04 04:02:28;;;;;;;79.88;75.35;;;;;;;;;;10150574;28;20675;-69
2022/10/04 04:07:28;;;;;;;80.13;75.35;;;;;;;;;;10155247;28;20049;-69
2022/10/04 04:12:34;;;;;;;81.28;76.53;;;;;;;;;;10144201;28;20046;-70
2022/10/04 04:17:35;;;;;;;79.57;74.85;;;;;;;;;;10145347;28;20046;-69
2022/10/04 04:22:32;;;;;;;77.97;72.93;;;;;;;;;;10149812;28;20046;-71
2022/10/04 04:27:32;;;;;;;80.15;75.57;;;;;;;;;;10143622;28;20042;-71
2022/10/04 04:32:39;;;;;;;82.80;78.10;;;;;;;;;;10157982;28;20057;-71
2022/10/04 04:37:37;;;;;;;81.03;76.07;;;;;;;;;;10157892;28;20046;-71
2022/10/04 04:42:33;;;;;;;84.03;79.07;;;;;;;;;;10154781;28;20050;-71
2022/10/04 04:47:32;;;;;;;81.85;76.75;;;;;;;;;;10149556;28;20050;-71
2022/10/04 04:52:30;;;;;;;85.80;80.88;;;;;;;;;;10152306;28;20511;-70
2022/10/04 04:57:27;;;;;;;85.18;79.95;;;;;;;;;;10150759;28;20421;-70
2022/10/04 05:02:30;;;;;;;87.78;82.57;;;;;;;;;;10153454;28;20062;-70
2022/10/04 05:07:28;;;;;;;87.18;81.70;;;;;;;;;;10152707;28;20038;-71
2022/10/04 05:12:24;;;;;;;86.82;81.57;;;;;;;;;;10151167;28;20057;-70
2022/10/04 05:17:23;;;;;;;87.50;82.13;;;;;;;;;;10150264;28;20396;-70
2022/10/04 05:22:21;;;;;;;85.22;80.32;;;;;;;;;;10159153;28;20042;-71
2022/10/04 05:27:24;;;;;;;88.00;82.38;;;;;;;;;;10155794;28;20130;-70
2022/10/04 05:32:38;;;;;;;88.65;83.35;;;;;;;;;;10152674;28;20512;-71
2022/10/04 05:37:57;;;;;;;88.80;83.53;;;;;;;;;;10153730;28;20044;-71
2022/10/04 05:42:57;;;;;;;92.05;86.60;;;;;;;;;;10158613;28;20509;-70
2022/10/04 05:47:54;;;;;;;88.60;83.10;;;;;;;;;;10155676;28;20042;-70
2022/10/04 05:52:51;;;;;;;94.18;88.25;;;;;;;;;;10156856;28;20427;-71
2022/10/04 05:58:05;;;;;;;86.50;81.15;;;;;;;;;;10161014;28;20054;-70
2022/10/04 06:03:02;;;;;;;95.03;89.20;;;;;;;;;;10137976;28;20042;-71
2022/10/04 06:08:17;;;;;;;90.38;84.93;;;;;;;;;;10151251;28;20416;-70
2022/10/04 06:13:13;;;;;;;95.70;89.47;;;;;;;;;;10148627;28;20035;-70
2022/10/04 06:18:22;;;;;;;90.07;84.47;;;;;;;;;;10156206;28;20407;-71
2022/10/04 06:23:20;;;;;;;85.82;80.38;;;;;;;;;;10146549;28;20511;-71
2022/10/04 06:28:42;;;;;;;91.43;85.97;;;;;;;;;;10147184;28;20133;-71
2022/10/04 06:33:50;;;;;;;96.25;90.47;;;;;;;;;;10142222;28;20515;-71
2022/10/04 06:39:05;;;;;;;100.05;93.95;;;;;;;;;;10152896;28;20054;-70
2022/10/04 06:44:20;;;;;;;101.55;94.97;;;;;;;;;;10153788;28;20048;-70
2022/10/04 06:49:16;;;;;;;104.88;98.25;;;;;;;;;;10149814;28;20046;-70
2022/10/04 06:54:38;;;;;;;104.22;97.68;;;;;;;;;;10152176;28;20050;-70
2022/10/04 06:59:43;;;;;;;109.03;101.97;;;;;;;;;;10156796;28;20400;-71
2022/10/04 07:04:40;;;;;;;107.03;100.57;;;;;;;;;;10155250;28;20052;-70
2022/10/04 07:10:00;;;;;;;117.53;109.93;;;;;;;;;;10157033;28;20050;-70
2022/10/04 07:14:59;;;;;;;128.10;120.07;;;;;;;;;;10156411;28;20038;-70
2022/10/04 07:19:56;;;;;;;120.22;112.30;;;;;;;;;;10155160;28;20051;-71
2022/10/04 07:24:56;;;;;;;125.50;117.63;;;;;;;;;;10148642;28;20056;-70
2022/10/04 07:29:57;;;;;;;126.05;118.30;;;;;;;;;;10155965;28;20508;-71
2022/10/04 07:34:56;;;;;;;116.47;108.30;;;;;;;;;;10147012;28;20487;-71
2022/10/04 07:40:16;;;;;;;118.93;111.70;;;;;;;;;;10158163;28;20738;-71
2022/10/04 07:45:16;;;;;;;97.60;91.57;;;;;;;;;;10152326;28;20506;-71
2022/10/04 07:50:15;;;;;;;87.38;82.10;;;;;;;;;;10151012;28;20047;-71
2022/10/04 07:55:23;;;;;;;81.65;76.75;;;;;;;;;;10157596;28;20046;-71
2022/10/04 08:00:21;;;;;;;78.68;73.80;;;;;;;;;;10157287;28;20539;-71
2022/10/04 08:05:20;;;;;;;72.65;68.13;;;;;;;;;;10158273;28;20089;-71
2022/10/04 08:10:30;;;;;;;67.38;62.90;;;;;;;;;;10153313;28;20046;-70
2022/10/04 08:15:36;;;;;;;58.97;55.15;;;;;;;;;;10153887;28;20042;-71
2022/10/04 08:20:46;;;;;;;50.83;47.28;;;;;;;;;;10155220;28;20468;-71
2022/10/04 08:25:48;;;;;;;48.47;44.75;;;;;;;;;;10159752;28;20267;-71
2022/10/04 08:31:04;;;;;;;43.92;40.47;;;;;;;;;;10155541;28;20058;-71
2022/10/04 08:36:08;;;;;;;38.20;35.35;;;;;;;;;;10164267;28;20443;-71
2022/10/04 08:41:05;;;;;;;37.90;34.90;;;;;;;;;;10157914;28;20046;-71
2022/10/04 08:46:13;;;;;;;31.83;29.40;;;;;;;;;;10149018;28;20065;-71
2022/10/04 08:51:28;;;;;;;27.98;25.60;;;;;;;;;;10156391;28;20068;-70
2022/10/04 08:56:30;;;;;;;26.77;24.33;;;;;;;;;;10147196;28;20410;-71
2022/10/04 09:01:26;;;;;;;25.20;22.88;;;;;;;;;;10151240;28;20050;-71
2022/10/04 09:06:25;;;;;;;23.00;20.77;;;;;;;;;;10162564;28;20117;-71
2022/10/04 09:11:44;;;;;;;24.15;21.77;;;;;;;;;;10154771;28;20563;-71
2022/10/04 09:16:45;;;;;;;22.45;20.65;;;;;;;;;;10152873;28;20412;-70
2022/10/04 09:21:42;;;;;;;22.63;18.38;;;;;;;;;;10156201;28;20577;-71
2022/10/04 09:26:50;;;;;;;22.55;19.60;;;;;;;;;;10150314;28;20045;-71
2022/10/04 09:32:05;;;;;;;20.48;18.38;;;;;;;;;;10150891;28;20057;-71
2022/10/04 09:37:01;;;;;;;24.25;17.50;;;;;;;;;;10145040;28;20050;-71
2022/10/04 09:42:16;;;;;;;18.75;16.85;;;;;;;;;;10151417;28;20051;-71
2022/10/04 09:47:30;;;;;;;16.65;14.88;;;;;;;;;;10148467;28;20073;-70
2022/10/04 09:52:33;;;;;;;28.48;16.17;;;;;;;;;;10147673;28;20062;-70
2022/10/04 09:57:32;;;;;;;17.05;15.23;;;;;;;;;;10147665;28;20515;-70
2022/10/04 10:02:47;;;;;;;19.65;15.18;;;;;;;;;;10153996;28;20053;-70
2022/10/04 10:07:55;;;;;;;19.13;15.50;;;;;;;;;;10148636;28;20500;-71
2022/10/04 10:18:19;;;;;;;18.50;16.17;;;;;;;;;;10154788;28;20551;-70
2022/10/04 10:23:18;;;;;;;16.65;14.93;;;;;;;;;;10146022;28;20046;-71
2022/10/04 10:28:33;;;;;;;22.88;15.60;;;;;;;;;;10152520;28;20046;-71
2022/10/04 10:33:39;;;;;;;21.50;16.55;;;;;;;;;;10161465;28;20594;-71
2022/10/04 10:38:37;;;;;;;23.42;17.42;;;;;;;;;;10147758;28;20061;-71
2022/10/04 10:43:51;;;;;;;17.23;15.55;;;;;;;;;;10148662;28;20053;-71
2022/10/04 10:48:56;;;;;;;20.77;15.60;;;;;;;;;;10140738;28;20042;-71
2022/10/04 10:54:11;;;;;;;21.05;16.17;;;;;;;;;;10148552;28;20042;-71
2022/10/04 10:59:11;;;;;;;17.42;15.85;;;;;;;;;;10148081;28;20083;-71
2022/10/04 11:04:18;;;;;;;19.55;14.77;;;;;;;;;;10149696;28;20069;-71
2022/10/04 11:09:28;;;;;;;21.45;15.75;;;;;;;;;;10148257;28;20057;-71
2022/10/04 11:14:33;;;;;;;19.02;15.15;;;;;;;;;;10148945;28;20491;-71
2022/10/04 11:19:32;;;;;;;23.30;14.93;;;;;;;;;;10150205;28;20054;-71
2022/10/04 11:24:47;;;;;;;15.60;14.02;;;;;;;;;;10146151;28;20042;-70
2022/10/04 11:30:07;;;;;;;15.40;14.00;;;;;;;;;;10135341;28;20408;-71
2022/10/04 11:35:22;;;;;;;15.80;14.23;;;;;;;;;;10152517;28;20420;-71
2022/10/04 11:40:38;;;;;;;17.88;13.43;;;;;;;;;;10146364;28;20061;-71
2022/10/04 11:45:37;;;;;;;19.65;13.05;;;;;;;;;;10157922;28;20054;-71
2022/10/04 11:50:37;;;;;;;16.00;12.30;;;;;;;;;;10159751;28;20046;-71
2022/10/04 11:55:56;;;;;;;16.45;11.90;;;;;;;;;;10154316;28;20061;-70
2022/10/04 12:00:55;;;;;;;16.23;10.60;;;;;;;;;;10156915;28;20049;-72
2022/10/04 12:06:10;;;;;;;17.83;10.93;;;;;;;;;;10156321;28;20042;-71
2022/10/04 12:11:12;;;;;;;13.52;10.80;;;;;;;;;;10153974;28;20046;-71
2022/10/04 12:16:08;;;;;;;11.95;10.70;;;;;;;;;;10151628;28;20445;-71
2022/10/04 12:21:07;;;;;;;12.02;10.77;;;;;;;;;;10153480;28;20046;-71
2022/10/04 12:26:09;;;;;;;13.82;9.20;;;;;;;;;;10151748;28;20568;-71
2022/10/04 12:31:26;;;;;;;11.27;9.38;;;;;;;;;;10154616;28;20057;-71
2022/10/04 12:36:25;;;;;;;11.88;9.38;;;;;;;;;;10161208;28;20077;-71
2022/10/04 12:41:24;;;;;;;9.75;8.75;;;;;;;;;;10155789;28;20055;-71
2022/10/04 12:46:30;;;;;;;11.15;8.55;;;;;;;;;;10154878;28;20569;-71
2022/10/04 12:51:35;;;;;;;12.95;8.55;;;;;;;;;;10148956;28;20055;-71
2022/10/04 12:56:41;;;;;;;10.13;8.43;;;;;;;;;;10149930;28;20042;-71
2022/10/04 13:01:48;;;;;;;15.02;8.48;;;;;;;;;;10145714;28;20117;-71
2022/10/04 13:07:03;;;;;;;15.45;8.27;;;;;;;;;;10153407;28;20041;-71
2022/10/04 13:12:09;;;;;;;11.77;8.07;;;;;;;;;;10166545;28;20038;-71
2022/10/04 13:17:16;;;;;;;10.93;8.40;;;;;;;;;;10160467;28;20049;-71
2022/10/04 13:22:40;;;;;;;13.25;7.75;;;;;;;;;;10149752;28;20108;-71
2022/10/04 13:28:01;;;;;;;8.93;7.68;;;;;;;;;;10153706;28;20566;-71
2022/10/04 13:33:17;;;;;;;11.40;7.95;;;;;;;;;;10150661;28;20162;-71
2022/10/04 13:38:23;;;;;;;11.07;7.95;;;;;;;;;;10145873;28;20046;-71
2022/10/04 13:43:28;;;;;;;14.60;8.10;;;;;;;;;;10163294;28;20046;-71
2022/10/04 13:48:30;;;;;;;11.25;8.27;;;;;;;;;;10148268;28;20056;-71
2022/10/04 13:58:54;;;;;;;10.88;7.93;;;;;;;;;;10148240;28;20054;-71
2022/10/04 14:04:09;;;;;;;10.75;8.18;;;;;;;;;;10148744;28;20049;-71
2022/10/04 14:09:08;;;;;;;10.32;7.65;;;;;;;;;;10146937;28;20046;-71
2022/10/04 14:14:04;;;;;;;9.90;7.22;;;;;;;;;;10143828;28;20048;-71
2022/10/04 14:19:05;;;;;;;11.63;8.00;;;;;;;;;;10156042;28;20038;-70
2022/10/04 14:24:09;;;;;;;9.53;7.27;;;;;;;;;;10143363;28;20038;-71
2022/10/04 14:29:14;;;;;;;9.10;7.45;;;;;;;;;;10146458;28;20051;-71
2022/10/04 14:34:29;;;;;;;10.13;7.28;;;;;;;;;;10147378;28;20058;-72
2022/10/04 14:39:45;;;;;;;9.57;7.60;;;;;;;;;;10146418;28;20137;-71
2022/10/04 14:44:44;;;;;;;9.65;7.72;;;;;;;;;;10149419;28;20516;-71
2022/10/04 14:49:43;;;;;;;8.15;7.00;;;;;;;;;;10159769;28;20042;-71
2022/10/04 14:54:42;;;;;;;8.35;7.30;;;;;;;;;;10148942;28;20046;-71
2022/10/04 14:59:57;;;;;;;9.15;6.80;;;;;;;;;;10147192;28;20050;-71
2022/10/04 15:05:12;;;;;;;7.80;7.07;;;;;;;;;;10148782;28;20054;-69
2022/10/04 15:10:09;;;;;;;12.13;7.47;;;;;;;;;;10137266;28;20055;-68
2022/10/04 15:15:13;;;;;;;7.80;6.97;;;;;;;;;;10145534;28;20053;-69
2022/10/04 15:20:15;;;;;;;8.10;7.15;;;;;;;;;;10147165;28;20732;-68
2022/10/04 15:25:30;;;;;;;11.25;8.18;;;;;;;;;;10150524;28;20050;-68
2022/10/04 15:30:29;;;;;;;9.02;7.15;;;;;;;;;;10155181;28;20669;-68
2022/10/04 15:35:28;;;;;;;8.98;7.82;;;;;;;;;;10154791;28;20050;-68
2022/10/04 15:40:43;;;;;;;8.80;7.35;;;;;;;;;;10155665;28;20069;-68
2022/10/04 15:45:55;;;;;;;8.55;7.53;;;;;;;;;;10152055;28;20749;-68
2022/10/04 15:51:17;;;;;;;12.23;7.40;;;;;;;;;;10152049;28;20052;-68
2022/10/04 15:56:23;;;;;;;8.82;7.43;;;;;;;;;;10152822;28;20054;-68
2022/10/04 16:01:38;;;;;;;10.20;7.93;;;;;;;;;;10152560;28;20138;-68
2022/10/04 16:06:45;;;;;;;11.40;8.23;;;;;;;;;;10154452;28;20048;-68
2022/10/04 16:11:51;;;;;;;12.45;8.23;;;;;;;;;;10153945;28;20050;-69
2022/10/04 16:16:53;;;;;;;10.70;7.57;;;;;;;;;;10152338;28;20049;-67
2022/10/04 16:21:53;;;;;;;10.45;8.35;;;;;;;;;;10150542;28;20045;-69
2022/10/04 16:26:49;;;;;;;8.35;7.57;;;;;;;;;;10162917;28;20050;-68
2022/10/04 16:31:45;;;;;;;10.93;7.97;;;;;;;;;;10164715;28;20484;-68
2022/10/04 16:36:53;;;;;;;9.70;8.63;;;;;;;;;;10168417;28;20054;-68
2022/10/04 16:41:56;;;;;;;9.55;8.55;;;;;;;;;;10165036;28;20041;-69
2022/10/04 16:46:53;;;;;;;10.20;9.30;;;;;;;;;;10147140;28;20049;-69
2022/10/04 16:51:54;;;;;;;11.10;9.90;;;;;;;;;;10130057;28;20051;-68
2022/10/04 16:56:57;;;;;;;11.70;10.50;;;;;;;;;;10145495;28;20093;-68
2022/10/04 17:02:02;;;;;;;10.95;9.75;;;;;;;;;;10150562;28;20054;-68
2022/10/04 17:07:13;;;;;;;13.63;10.82;;;;;;;;;;10151128;28;20046;-68
2022/10/04 17:12:15;;;;;;;12.35;11.05;;;;;;;;;;10144647;28;20051;-68
2022/10/04 17:17:23;;;;;;;12.73;11.52;;;;;;;;;;10146012;28;20054;-68
2022/10/04 17:22:38;;;;;;;12.80;11.75;;;;;;;;;;10152189;28;20061;-68
2022/10/04 17:27:40;;;;;;;12.90;11.77;;;;;;;;;;10153068;28;20076;-69
2022/10/04 17:32:55;;;;;;;17.55;11.60;;;;;;;;;;10139712;28;20058;-69
2022/10/04 17:37:51;;;;;;;13.45;12.07;;;;;;;;;;10148090;28;20492;-69
2022/10/04 17:43:03;;;;;;;14.80;13.32;;;;;;;;;;10145784;28;20065;-69
2022/10/04 17:58:39;;;;;;;15.82;14.27;;;;;;;;;;10145748;28;20045;-69
2022/10/04 18:03:40;;;;;;;15.15;13.95;;;;;;;;;;10141893;28;20058;-68
2022/10/04 18:08:40;;;;;;;16.40;14.88;;;;;;;;;;10131061;28;20046;-69
2022/10/04 18:13:36;;;;;;;18.08;16.48;;;;;;;;;;10141012;28;20050;-68
2022/10/04 18:18:37;;;;;;;19.98;18.20;;;;;;;;;;10143706;28;20042;-70
2022/10/04 18:23:35;;;;;;;19.20;17.60;;;;;;;;;;10144675;28;20034;-69
2022/10/04 18:28:33;;;;;;;19.05;17.23;;;;;;;;;;10133701;28;20574;-69
2022/10/04 18:33:39;;;;;;;19.55;17.95;;;;;;;;;;10144299;28;20042;-69
2022/10/04 18:38:35;;;;;;;19.73;17.98;;;;;;;;;;10152500;28;20046;-69
2022/10/04 18:43:34;;;;;;;19.85;18.25;;;;;;;;;;10149221;28;20050;-68
2022/10/04 18:48:39;;;;;;;21.60;19.85;;;;;;;;;;10144323;28;20050;-68
2022/10/04 18:53:35;;;;;;;21.70;20.02;;;;;;;;;;10153750;28;20054;-67
2022/10/04 19:04:09;;;;;;;22.47;20.67;;;;;;;;;;10160366;28;20507;-67
2022/10/04 19:09:14;;;;;;;21.55;19.80;;;;;;;;;;10158390;28;20050;-67
2022/10/04 19:14:29;;;;;;;22.65;20.80;;;;;;;;;;10150948;28;20056;-67
2022/10/04 19:19:44;;;;;;;20.58;19.15;;;;;;;;;;10160768;28;20046;-67
2022/10/04 19:24:43;;;;;;;23.17;21.27;;;;;;;;;;10152903;28;20039;-67
2022/10/04 19:29:58;;;;;;;22.80;21.10;;;;;;;;;;10154328;28;20049;-67
2022/10/04 19:35:16;;;;;;;22.50;20.70;;;;;;;;;;10157340;28;20042;-67
2022/10/04 19:40:13;;;;;;;23.00;21.05;;;;;;;;;;10153661;28;20054;-67
2022/10/04 19:45:32;;;;;;;22.33;20.80;;;;;;;;;;10153547;28;20054;-67
2022/10/04 19:50:34;;;;;;;22.02;20.35;;;;;;;;;;10152132;28;20042;-67
2022/10/04 19:55:42;;;;;;;21.80;19.98;;;;;;;;;;10149927;28;20046;-67
2022/10/04 20:00:38;;;;;;;22.65;20.88;;;;;;;;;;10151827;28;20070;-67
2022/10/04 20:05:39;;;;;;;22.85;21.15;;;;;;;;;;10150175;28;20125;-66
2022/10/04 20:10:36;;;;;;;25.13;23.10;;;;;;;;;;10157537;28;20049;-67
2022/10/04 20:15:36;;;;;;;23.75;22.10;;;;;;;;;;10155736;28;20285;-67
2022/10/04 20:20:41;;;;;;;24.05;21.90;;;;;;;;;;10149915;28;20076;-66
2022/10/04 20:25:44;;;;;;;25.00;22.88;;;;;;;;;;10149033;28;20042;-66
2022/10/04 20:30:49;;;;;;;25.73;23.48;;;;;;;;;;10151070;28;20422;-67
2022/10/04 20:35:58;;;;;;;27.42;25.30;;;;;;;;;;10152857;28;20710;-67
2022/10/04 20:40:55;;;;;;;28.27;26.20;;;;;;;;;;10147159;28;20069;-67
2022/10/04 20:45:53;;;;;;;30.90;28.73;;;;;;;;;;10147474;28;20061;-69
2022/10/04 20:50:51;;;;;;;32.38;29.52;;;;;;;;;;10153177;28;20053;-69
2022/10/04 20:55:47;;;;;;;31.30;29.05;;;;;;;;;;10152942;28;20041;-69
2022/10/04 21:00:54;;;;;;;31.77;29.67;;;;;;;;;;10161966;28;20060;-68
2022/10/04 21:05:59;;;;;;;31.58;29.33;;;;;;;;;;10155630;28;20049;-68
2022/10/04 21:11:06;;;;;;;34.40;32.00;;;;;;;;;;10151323;28;20054;-68
2022/10/04 21:16:03;;;;;;;30.70;28.25;;;;;;;;;;10138072;28;20133;-68
2022/10/04 21:20:59;;;;;;;32.95;30.65;;;;;;;;;;10143945;28;20073;-68
2022/10/04 21:26:14;;;;;;;30.83;28.60;;;;;;;;;;10150495;28;20046;-68
2022/10/04 21:31:10;;;;;;;30.65;28.63;;;;;;;;;;10141317;28;20054;-68
2022/10/04 21:36:07;;;;;;;31.45;29.23;;;;;;;;;;10138547;28;20057;-68
2022/10/04 21:41:03;;;;;;;27.25;25.13;;;;;;;;;;10150825;28;20050;-68
2022/10/04 21:45:59;;;;;;;25.80;23.85;;;;;;;;;;10143593;28;20042;-67
2022/10/04 21:50:56;;;;;;;24.75;22.98;;;;;;;;;;10150409;28;20081;-67
2022/10/04 21:55:52;;;;;;;23.38;21.02;;;;;;;;;;10144807;28;20046;-67
2022/10/04 22:00:48;;;;;;;22.30;20.60;;;;;;;;;;10148017;28;20504;-67
2022/10/04 22:05:44;;;;;;;22.48;20.77;;;;;;;;;;10147451;28;20046;-67
2022/10/04 22:10:42;;;;;;;18.08;16.63;;;;;;;;;;10138108;28;20460;-67
2022/10/04 22:15:38;;;;;;;16.02;14.43;;;;;;;;;;10147806;28;20049;-67
2022/10/04 22:20:35;;;;;;;12.73;11.73;;;;;;;;;;10145021;28;20061;-67
2022/10/04 22:25:31;;;;;;;13.55;12.13;;;;;;;;;;10147319;28;20062;-67
2022/10/04 22:30:29;;;;;;;12.25;10.98;;;;;;;;;;10147275;28;20047;-68
2022/10/04 22:35:28;;;;;;;13.48;10.73;;;;;;;;;;10145824;28;20050;-67
2022/10/04 22:40:26;;;;;;;11.88;10.68;;;;;;;;;;10136645;28;20408;-67
2022/10/04 22:45:26;;;;;;;13.65;11.15;;;;;;;;;;10146554;28;20057;-67
2022/10/04 22:50:31;;;;;;;14.45;10.35;;;;;;;;;;10139912;28;20512;-67
2022/10/04 22:55:27;;;;;;;18.40;10.90;;;;;;;;;;10144696;28;20052;-67
2022/10/04 23:00:23;;;;;;;11.82;9.77;;;;;;;;;;10138465;28;20061;-66
2022/10/04 23:05:20;;;;;;;13.43;12.13;;;;;;;;;;10144383;28;20150;-67
2022/10/04 23:10:18;;;;;;;13.45;11.20;;;;;;;;;;10143833;28;20543;-67
2022/10/04 23:15:15;;;;;;;12.18;10.80;;;;;;;;;;10147601;28;20049;-67
2022/10/04 23:20:13;;;;;;;12.32;11.20;;;;;;;;;;10154493;28;20049;-66
2022/10/04 23:25:11;;;;;;;12.25;11.13;;;;;;;;;;10138879;28;20493;-68
2022/10/04 23:30:11;;;;;;;12.25;11.00;;;;;;;;;;10145558;28;20439;-67
2022/10/04 23:35:14;;;;;;;13.00;10.85;;;;;;;;;;10141053;28;20042;-67
2022/10/04 23:40:11;;;;;;;11.93;10.80;;;;;;;;;;10151668;28;20058;-67
2022/10/04 23:45:12;;;;;;;12.10;10.90;;;;;;;;;;10156258;28;20057;-67
2022/10/04 23:50:16;;;;;;;14.07;12.00;;;;;;;;;;10146394;28;20054;-67
2022/10/04 23:55:15;;;;;;;13.45;12.05;;;;;;;;;;10149028;28;20053;-67
